• °C
  • Pobieranie danych...
wx



TAF EPBC 290200Z NIL=

TAF EPCE 291400Z 2915/2924 23010KT 9999 BKN022 TEMPO 2918/2924 5000
SHRA RA BKN013CB PROB30 TEMPO 2920/2924 BKN007=

TAF EPDA 291400Z 2915/2924 24012KT 9999 BKN030 TEMPO 2915/2924
24015G25KT 5000 SHRA BKN015CB PROB30 TEMPO 2919/2924 24020G35KT=

TAF EPDE 291400Z 2915/2924 24008KT 9999 SCT030 BKN080 BKN200
BECMG 2916/2918 5000 RA BKN017 OVC025=

TAF EPDE 302300Z NIL=

TAF EPIR 291400Z 2915/2924 25014KT 9999 BKN033 TEMPO 2915/2918
24016G26KT 5000 SHRA SCT008 BKN015CB BECMG 2918/2920 5000 BR
SCT033 =

TAF EPIR 302300Z NIL=

TAF EPKS 291400Z 2915/2924 26010KT 9999 SCT033
TEMPO 2915/2918 5000 SHRA BKN025CB=

TAF EPLK 291400Z 2915/2924 25008KT 9999 RA SCT030 OVC050
BECMG 2919/2921 BKN030=

TAF EPLY 291400Z 2915/2924 23010KT BKN040 TEMPO 2915/2918 -SHRA
BKN020CB=

TAF EPLY 302300Z NIL=

TAF EPMB 291400Z 2915/2924 21012KT 9999 BKN020 BECMG 2915/2917 SCT025
PROB30 TEMPO 2915/2918 -SHRA BKN015CB BECMG 2919/2921 23014KT
BKN020 TEMPO 2921/2924 3000 SHRA BR BKN010CB=

TAF COR EPMB 010334Z 3021/0106 01010KT 9999 BKN015 BKN100 PROB30
TEMPO 3021/3022 RA BKN013=

TAF EPMI 291400Z 2915/2924 26010KT 9999 SCT020
TEMPO 2915/2918 7000 SHRA SCT007 BKN010CB=

TAF EPMI 301104Z 3000/0109 35006KT 7000 BKN013
TEMPO 0101/0107 3000 DZRA BR BKN004=

TAF EPMM 291400Z 2915/2924 26010KT 9999 SCT025 BKN070 TEMPO 2916/2921
-RA BKN015 PROB30 2917/2921 5000 RA BR SCT007 BKN010=

TAF EPNA 290200Z NIL=

TAF EPNA 302300Z NIL=

TAF EPOK 291400Z 2915/2924 23012KT 9999 BKN030 TEMPO 2915/2924 -RA
SHRA BKN013 BKN020CB PROB30 TEMPO 2915/2924 23013G23KT=

TAF EPPR 291400Z 2915/2924 23014KT 9999 BKN030 TEMPO 2916/2924
23015G25KT SHRA BKN017CB=

TAF EPPR 302300Z NIL=

TAF EPPW 291400Z 2915/2924 26010KT 9999 SCT033 TEMPO 2915/2917 BKN025
PROB30 TEMPO 2915/2917 26014G24KT 5000 SHRA SCT008 BKN014CB=

TAF EPPW 302300Z 3100/3109 03008KT 9999 SCT007 BKN017
TEMPO 0100/0108 5000 RA BR BKN006 OVC013
PROB30 TEMPO 0100/0105 3000 RADZ BR BKN004=

TAF EPRA 291400Z 2915/2924 25010KT 9999 BKN040 BECMG 2915/2917 5000
RA BKN020=

TAF EPRA 302300Z NIL=

TAF EPSN 291400Z 2915/2924 25012KT 9999 BKN020
PROB30 TEMPO 2915/2920 6000 SHRA SCT006 BKN010CB=

TAF EPSN 302300Z 3000/0109 03006KT 8000 NSC
BECMG 0101/0103 BKN015
TEMPO 0102/0107 3000 BR BKN007
PROB30 0103/0107 BKN004=

TAF EPTM 291400Z 2915/2924 25010KT 9999 BKN033 TEMPO 2915/2920 5000
SHRA BKN020CB=

TAF EPTM 302300Z NIL=



Serwisy IMGW-PIB